sensor_id;sensor_type;location;lat;lon;timestamp;temperature;humidity
2941;DHT22;1480;51.456;6.670;2023-01-24T00:01:03;5.00;80.60
2941;DHT22;1480;51.456;6.670;2023-01-24T00:03:31;5.20;80.20
2941;DHT22;1480;51.456;6.670;2023-01-24T00:05:58;5.10;80.10
2941;DHT22;1480;51.456;6.670;2023-01-24T00:08:25;5.40;81.10
2941;DHT22;1480;51.456;6.670;2023-01-24T00:10:58;5.20;80.30
2941;DHT22;1480;51.456;6.670;2023-01-24T00:13:25;5.30;80.20
2941;DHT22;1480;51.456;6.670;2023-01-24T00:16:01;5.10;80.00
2941;DHT22;1480;51.456;6.670;2023-01-24T00:18:28;5.00;80.20
2941;DHT22;1480;51.456;6.670;2023-01-24T00:21:02;5.20;80.20
2941;DHT22;1480;51.456;6.670;2023-01-24T00:23:29;5.10;79.90
2941;DHT22;1480;51.456;6.670;2023-01-24T00:25:56;5.00;80.30
2941;DHT22;1480;51.456;6.670;2023-01-24T00:28:23;5.00;80.20
2941;DHT22;1480;51.456;6.670;2023-01-24T00:30:50;4.90;79.90
2941;DHT22;1480;51.456;6.670;2023-01-24T00:33:17;5.20;79.80
2941;DHT22;1480;51.456;6.670;2023-01-24T00:35:44;5.00;79.60
2941;DHT22;1480;51.456;6.670;2023-01-24T00:38:12;5.00;79.60
2941;DHT22;1480;51.456;6.670;2023-01-24T00:40:39;4.90;80.10
2941;DHT22;1480;51.456;6.670;2023-01-24T00:43:06;4.90;79.70
2941;DHT22;1480;51.456;6.670;2023-01-24T00:45:35;5.00;80.70
2941;DHT22;1480;51.456;6.670;2023-01-24T00:48:02;4.90;80.60
2941;DHT22;1480;51.456;6.670;2023-01-24T00:50:30;4.90;79.50
2941;DHT22;1480;51.456;6.670;2023-01-24T00:52:57;4.90;79.80
2941;DHT22;1480;51.456;6.670;2023-01-24T00:55:25;4.90;79.30
2941;DHT22;1480;51.456;6.670;2023-01-24T00:57:52;4.90;79.50
2941;DHT22;1480;51.456;6.670;2023-01-24T01:00:20;5.00;79.30
2941;DHT22;1480;51.456;6.670;2023-01-24T01:02:47;5.00;80.20
2941;DHT22;1480;51.456;6.670;2023-01-24T01:05:14;5.20;80.00
2941;DHT22;1480;51.456;6.670;2023-01-24T01:07:41;5.00;79.30
2941;DHT22;1480;51.456;6.670;2023-01-24T01:10:09;5.10;80.10
2941;DHT22;1480;51.456;6.670;2023-01-24T01:12:38;5.00;80.30
2941;DHT22;1480;51.456;6.670;2023-01-24T01:15:06;5.00;79.70
2941;DHT22;1480;51.456;6.670;2023-01-24T01:17:33;4.90;79.90
2941;DHT22;1480;51.456;6.670;2023-01-24T01:19:59;5.00;80.00
2941;DHT22;1480;51.456;6.670;2023-01-24T01:22:27;5.00;80.30
2941;DHT22;1480;51.456;6.670;2023-01-24T01:24:54;5.10;79.90
2941;DHT22;1480;51.456;6.670;2023-01-24T01:27:21;5.10;79.80
2941;DHT22;1480;51.456;6.670;2023-01-24T01:29:49;5.10;80.40
2941;DHT22;1480;51.456;6.670;2023-01-24T01:32:16;5.00;79.70
2941;DHT22;1480;51.456;6.670;2023-01-24T01:34:43;5.00;80.80
2941;DHT22;1480;51.456;6.670;2023-01-24T01:37:10;5.10;80.40
2941;DHT22;1480;51.456;6.670;2023-01-24T01:39:38;5.20;80.30
2941;DHT22;1480;51.456;6.670;2023-01-24T01:42:05;5.20;80.30
2941;DHT22;1480;51.456;6.670;2023-01-24T01:44:32;5.00;80.30
2941;DHT22;1480;51.456;6.670;2023-01-24T01:47:17;4.90;80.30
2941;DHT22;1480;51.456;6.670;2023-01-24T01:49:48;5.00;80.20
2941;DHT22;1480;51.456;6.670;2023-01-24T01:52:17;5.00;79.60
2941;DHT22;1480;51.456;6.670;2023-01-24T01:54:45;4.90;79.90
2941;DHT22;1480;51.456;6.670;2023-01-24T01:57:17;4.80;79.40
2941;DHT22;1480;51.456;6.670;2023-01-24T01:59:48;5.00;79.20
2941;DHT22;1480;51.456;6.670;2023-01-24T02:02:19;4.80;79.40
2941;DHT22;1480;51.456;6.670;2023-01-24T02:04:51;4.90;79.20
2941;DHT22;1480;51.456;6.670;2023-01-24T02:07:21;4.90;79.00
2941;DHT22;1480;51.456;6.670;2023-01-24T02:09:50;4.90;79.00
2941;DHT22;1480;51.456;6.670;2023-01-24T02:12:19;4.90;79.00
2941;DHT22;1480;51.456;6.670;2023-01-24T02:14:49;4.80;78.80
2941;DHT22;1480;51.456;6.670;2023-01-24T02:17:36;4.70;78.80
2941;DHT22;1480;51.456;6.670;2023-01-24T02:22:58;5.10;79.10
2941;DHT22;1480;51.456;6.670;2023-01-24T02:25:34;4.90;79.20
2941;DHT22;1480;51.456;6.670;2023-01-24T02:28:05;4.90;79.20
2941;DHT22;1480;51.456;6.670;2023-01-24T02:30:35;4.90;78.40
2941;DHT22;1480;51.456;6.670;2023-01-24T02:33:09;4.70;78.70
2941;DHT22;1480;51.456;6.670;2023-01-24T02:35:37;4.70;78.90
2941;DHT22;1480;51.456;6.670;2023-01-24T02:38:05;4.70;78.50
2941;DHT22;1480;51.456;6.670;2023-01-24T02:40:33;4.70;78.90
2941;DHT22;1480;51.456;6.670;2023-01-24T02:43:04;4.70;78.10
2941;DHT22;1480;51.456;6.670;2023-01-24T02:45:34;4.70;78.20
2941;DHT22;1480;51.456;6.670;2023-01-24T02:48:02;4.50;78.30
2941;DHT22;1480;51.456;6.670;2023-01-24T02:50:31;4.80;78.20
2941;DHT22;1480;51.456;6.670;2023-01-24T02:53:21;4.80;77.80
2941;DHT22;1480;51.456;6.670;2023-01-24T02:55:57;4.70;77.80
2941;DHT22;1480;51.456;6.670;2023-01-24T02:58:44;4.80;77.00
2941;DHT22;1480;51.456;6.670;2023-01-24T03:01:11;4.40;77.00
2941;DHT22;1480;51.456;6.670;2023-01-24T03:03:41;4.60;76.30
2941;DHT22;1480;51.456;6.670;2023-01-24T03:06:09;4.60;77.60
2941;DHT22;1480;51.456;6.670;2023-01-24T03:08:37;4.50;76.70
2941;DHT22;1480;51.456;6.670;2023-01-24T03:11:13;4.50;77.20
2941;DHT22;1480;51.456;6.670;2023-01-24T03:13:42;4.50;76.70
2941;DHT22;1480;51.456;6.670;2023-01-24T03:16:28;4.50;76.70
2941;DHT22;1480;51.456;6.670;2023-01-24T03:19:12;4.60;77.60
2941;DHT22;1480;51.456;6.670;2023-01-24T03:21:57;4.50;78.10
2941;DHT22;1480;51.456;6.670;2023-01-24T03:24:41;4.50;76.90
2941;DHT22;1480;51.456;6.670;2023-01-24T03:27:26;4.80;78.00
2941;DHT22;1480;51.456;6.670;2023-01-24T03:30:13;4.60;77.30
2941;DHT22;1480;51.456;6.670;2023-01-24T03:33:00;4.70;77.50
2941;DHT22;1480;51.456;6.670;2023-01-24T03:35:47;4.80;76.80
2941;DHT22;1480;51.456;6.670;2023-01-24T03:38:21;4.50;77.50
2941;DHT22;1480;51.456;6.670;2023-01-24T03:41:06;4.80;78.10
2941;DHT22;1480;51.456;6.670;2023-01-24T03:43:34;4.70;78.00
2941;DHT22;1480;51.456;6.670;2023-01-24T03:46:02;4.80;77.20
2941;DHT22;1480;51.456;6.670;2023-01-24T03:48:40;4.80;76.50
2941;DHT22;1480;51.456;6.670;2023-01-24T03:51:08;4.60;76.60
2941;DHT22;1480;51.456;6.670;2023-01-24T03:53:52;4.70;77.10
2941;DHT22;1480;51.456;6.670;2023-01-24T03:56:24;4.70;76.70
2941;DHT22;1480;51.456;6.670;2023-01-24T03:58:56;4.50;75.90
2941;DHT22;1480;51.456;6.670;2023-01-24T04:01:26;4.40;76.60
2941;DHT22;1480;51.456;6.670;2023-01-24T04:04:18;4.60;77.50
2941;DHT22;1480;51.456;6.670;2023-01-24T04:06:46;4.50;76.60
2941;DHT22;1480;51.456;6.670;2023-01-24T04:09:14;4.40;76.80
2941;DHT22;1480;51.456;6.670;2023-01-24T04:11:42;4.50;76.60
2941;DHT22;1480;51.456;6.670;2023-01-24T04:14:13;4.40;76.60
2941;DHT22;1480;51.456;6.670;2023-01-24T04:16:55;4.40;77.30
2941;DHT22;1480;51.456;6.670;2023-01-24T04:19:29;4.40;77.30
2941;DHT22;1480;51.456;6.670;2023-01-24T04:21:56;4.40;77.80
2941;DHT22;1480;51.456;6.670;2023-01-24T04:24:23;4.50;76.40
2941;DHT22;1480;51.456;6.670;2023-01-24T04:26:50;4.20;76.20
2941;DHT22;1480;51.456;6.670;2023-01-24T04:29:24;4.30;77.20
2941;DHT22;1480;51.456;6.670;2023-01-24T04:31:53;4.50;77.20
2941;DHT22;1480;51.456;6.670;2023-01-24T04:34:48;4.50;78.30
2941;DHT22;1480;51.456;6.670;2023-01-24T04:37:23;4.40;76.80
2941;DHT22;1480;51.456;6.670;2023-01-24T04:39:50;4.40;77.80
2941;DHT22;1480;51.456;6.670;2023-01-24T04:42:18;4.60;77.60
2941;DHT22;1480;51.456;6.670;2023-01-24T04:44:45;4.60;78.20
2941;DHT22;1480;51.456;6.670;2023-01-24T04:47:12;4.40;77.00
2941;DHT22;1480;51.456;6.670;2023-01-24T04:49:40;4.40;76.70
2941;DHT22;1480;51.456;6.670;2023-01-24T04:52:12;4.30;76.00
2941;DHT22;1480;51.456;6.670;2023-01-24T04:54:48;4.30;76.80
2941;DHT22;1480;51.456;6.670;2023-01-24T04:57:17;4.40;75.80
2941;DHT22;1480;51.456;6.670;2023-01-24T04:59:45;4.20;76.70
2941;DHT22;1480;51.456;6.670;2023-01-24T05:02:12;4.30;76.40
2941;DHT22;1480;51.456;6.670;2023-01-24T05:04:42;4.40;77.00
2941;DHT22;1480;51.456;6.670;2023-01-24T05:07:11;4.30;76.90
2941;DHT22;1480;51.456;6.670;2023-01-24T05:09:41;4.30;77.40
2941;DHT22;1480;51.456;6.670;2023-01-24T05:12:10;4.30;77.70
2941;DHT22;1480;51.456;6.670;2023-01-24T05:14:37;4.50;77.40
2941;DHT22;1480;51.456;6.670;2023-01-24T05:17:05;4.30;76.90
2941;DHT22;1480;51.456;6.670;2023-01-24T05:19:34;4.50;77.00
2941;DHT22;1480;51.456;6.670;2023-01-24T05:22:00;4.20;76.40
2941;DHT22;1480;51.456;6.670;2023-01-24T05:24:34;4.20;77.40
2941;DHT22;1480;51.456;6.670;2023-01-24T05:27:01;4.50;77.30
2941;DHT22;1480;51.456;6.670;2023-01-24T05:29:30;4.60;77.10
2941;DHT22;1480;51.456;6.670;2023-01-24T05:32:01;4.70;78.00
2941;DHT22;1480;51.456;6.670;2023-01-24T05:34:28;4.60;78.40
2941;DHT22;1480;51.456;6.670;2023-01-24T05:36:56;4.50;78.60
2941;DHT22;1480;51.456;6.670;2023-01-24T05:39:23;4.50;78.50
2941;DHT22;1480;51.456;6.670;2023-01-24T05:41:51;4.60;78.10
2941;DHT22;1480;51.456;6.670;2023-01-24T05:44:20;4.50;77.70
2941;DHT22;1480;51.456;6.670;2023-01-24T05:46:48;4.50;77.90
2941;DHT22;1480;51.456;6.670;2023-01-24T05:49:19;4.50;78.40
2941;DHT22;1480;51.456;6.670;2023-01-24T05:51:48;4.40;78.50
2941;DHT22;1480;51.456;6.670;2023-01-24T05:54:24;4.60;77.90
2941;DHT22;1480;51.456;6.670;2023-01-24T05:56:59;4.70;78.30
2941;DHT22;1480;51.456;6.670;2023-01-24T05:59:34;4.80;78.00
2941;DHT22;1480;51.456;6.670;2023-01-24T06:02:01;4.60;78.40
2941;DHT22;1480;51.456;6.670;2023-01-24T06:04:29;4.70;78.00
2941;DHT22;1480;51.456;6.670;2023-01-24T06:06:56;4.70;79.40
2941;DHT22;1480;51.456;6.670;2023-01-24T06:09:23;4.60;78.20
2941;DHT22;1480;51.456;6.670;2023-01-24T06:11:51;4.70;77.90
2941;DHT22;1480;51.456;6.670;2023-01-24T06:14:20;4.50;78.90
2941;DHT22;1480;51.456;6.670;2023-01-24T06:16:48;4.40;77.80
2941;DHT22;1480;51.456;6.670;2023-01-24T06:19:17;4.50;78.70
2941;DHT22;1480;51.456;6.670;2023-01-24T06:21:46;4.70;78.60
2941;DHT22;1480;51.456;6.670;2023-01-24T06:24:19;4.70;78.60
2941;DHT22;1480;51.456;6.670;2023-01-24T06:26:56;4.60;78.00
2941;DHT22;1480;51.456;6.670;2023-01-24T06:29:25;4.60;78.90
2941;DHT22;1480;51.456;6.670;2023-01-24T06:32:00;4.50;77.80
2941;DHT22;1480;51.456;6.670;2023-01-24T06:34:41;4.60;78.90
2941;DHT22;1480;51.456;6.670;2023-01-24T06:37:17;4.80;78.80
2941;DHT22;1480;51.456;6.670;2023-01-24T06:39:49;4.70;78.50
2941;DHT22;1480;51.456;6.670;2023-01-24T06:42:17;4.70;78.30
2941;DHT22;1480;51.456;6.670;2023-01-24T06:44:46;4.70;76.10
2941;DHT22;1480;51.456;6.670;2023-01-24T06:47:13;4.50;78.50
2941;DHT22;1480;51.456;6.670;2023-01-24T06:49:41;4.50;77.90
2941;DHT22;1480;51.456;6.670;2023-01-24T06:52:08;4.50;77.40
2941;DHT22;1480;51.456;6.670;2023-01-24T06:54:35;4.60;78.40
2941;DHT22;1480;51.456;6.670;2023-01-24T06:57:03;4.60;78.60
2941;DHT22;1480;51.456;6.670;2023-01-24T06:59:29;4.60;78.20
2941;DHT22;1480;51.456;6.670;2023-01-24T07:01:58;4.50;77.50
2941;DHT22;1480;51.456;6.670;2023-01-24T07:04:25;4.60;77.40
2941;DHT22;1480;51.456;6.670;2023-01-24T07:06:51;4.40;77.80
2941;DHT22;1480;51.456;6.670;2023-01-24T07:09:18;4.50;77.70
2941;DHT22;1480;51.456;6.670;2023-01-24T07:11:45;4.50;77.20
2941;DHT22;1480;51.456;6.670;2023-01-24T07:14:15;4.50;77.20
2941;DHT22;1480;51.456;6.670;2023-01-24T07:16:42;4.40;77.10
2941;DHT22;1480;51.456;6.670;2023-01-24T07:19:14;4.50;76.90
2941;DHT22;1480;51.456;6.670;2023-01-24T07:21:42;4.50;77.20
2941;DHT22;1480;51.456;6.670;2023-01-24T07:24:13;4.30;76.90
2941;DHT22;1480;51.456;6.670;2023-01-24T07:26:40;4.40;77.00
2941;DHT22;1480;51.456;6.670;2023-01-24T07:29:08;4.50;77.10
2941;DHT22;1480;51.456;6.670;2023-01-24T07:31:35;4.50;76.70
2941;DHT22;1480;51.456;6.670;2023-01-24T07:34:02;4.50;76.60
2941;DHT22;1480;51.456;6.670;2023-01-24T07:36:30;4.50;76.40
2941;DHT22;1480;51.456;6.670;2023-01-24T07:38:57;4.50;76.10
2941;DHT22;1480;51.456;6.670;2023-01-24T07:41:24;4.30;77.10
2941;DHT22;1480;51.456;6.670;2023-01-24T07:43:52;4.40;76.50
2941;DHT22;1480;51.456;6.670;2023-01-24T07:46:20;4.30;76.30
2941;DHT22;1480;51.456;6.670;2023-01-24T07:48:47;4.70;76.90
2941;DHT22;1480;51.456;6.670;2023-01-24T07:51:14;4.40;76.70
2941;DHT22;1480;51.456;6.670;2023-01-24T07:53:42;4.60;76.00
2941;DHT22;1480;51.456;6.670;2023-01-24T07:56:09;4.60;76.30
2941;DHT22;1480;51.456;6.670;2023-01-24T07:58:36;4.50;76.70
2941;DHT22;1480;51.456;6.670;2023-01-24T08:01:03;4.60;76.80
2941;DHT22;1480;51.456;6.670;2023-01-24T08:03:30;4.90;75.80
2941;DHT22;1480;51.456;6.670;2023-01-24T08:05:56;4.50;76.60
2941;DHT22;1480;51.456;6.670;2023-01-24T08:08:23;4.70;76.60
2941;DHT22;1480;51.456;6.670;2023-01-24T08:10:52;4.60;76.60
2941;DHT22;1480;51.456;6.670;2023-01-24T08:13:18;4.60;75.60
2941;DHT22;1480;51.456;6.670;2023-01-24T08:15:47;4.70;77.00
2941;DHT22;1480;51.456;6.670;2023-01-24T08:18:14;4.70;76.50
2941;DHT22;1480;51.456;6.670;2023-01-24T08:20:41;4.80;76.10
2941;DHT22;1480;51.456;6.670;2023-01-24T08:23:08;4.60;76.40
2941;DHT22;1480;51.456;6.670;2023-01-24T08:25:35;4.70;75.80
2941;DHT22;1480;51.456;6.670;2023-01-24T08:28:03;4.70;76.00
2941;DHT22;1480;51.456;6.670;2023-01-24T08:30:30;5.00;76.30
2941;DHT22;1480;51.456;6.670;2023-01-24T08:33:01;4.70;76.50
2941;DHT22;1480;51.456;6.670;2023-01-24T08:35:29;4.60;75.70
2941;DHT22;1480;51.456;6.670;2023-01-24T08:37:56;4.80;75.70
2941;DHT22;1480;51.456;6.670;2023-01-24T08:40:24;4.90;75.60
2941;DHT22;1480;51.456;6.670;2023-01-24T08:42:51;4.90;75.20
2941;DHT22;1480;51.456;6.670;2023-01-24T08:45:19;4.80;75.10
2941;DHT22;1480;51.456;6.670;2023-01-24T08:47:50;4.70;75.30
2941;DHT22;1480;51.456;6.670;2023-01-24T08:50:18;4.80;75.80
2941;DHT22;1480;51.456;6.670;2023-01-24T08:52:45;4.80;75.70
2941;DHT22;1480;51.456;6.670;2023-01-24T08:55:12;4.60;75.20
2941;DHT22;1480;51.456;6.670;2023-01-24T08:57:39;4.70;76.30
2941;DHT22;1480;51.456;6.670;2023-01-24T09:00:07;4.80;74.60
2941;DHT22;1480;51.456;6.670;2023-01-24T09:02:36;4.90;74.80
2941;DHT22;1480;51.456;6.670;2023-01-24T09:05:04;5.10;76.20
2941;DHT22;1480;51.456;6.670;2023-01-24T09:07:31;5.00;74.40
2941;DHT22;1480;51.456;6.670;2023-01-24T09:09:59;4.90;75.20
2941;DHT22;1480;51.456;6.670;2023-01-24T09:12:26;4.90;75.30
2941;DHT22;1480;51.456;6.670;2023-01-24T09:14:53;4.80;75.00
2941;DHT22;1480;51.456;6.670;2023-01-24T09:17:20;5.10;74.50
2941;DHT22;1480;51.456;6.670;2023-01-24T09:19:48;5.00;74.70
2941;DHT22;1480;51.456;6.670;2023-01-24T09:22:15;5.00;74.30
2941;DHT22;1480;51.456;6.670;2023-01-24T09:24:42;5.20;74.00
2941;DHT22;1480;51.456;6.670;2023-01-24T09:27:10;5.00;74.50
2941;DHT22;1480;51.456;6.670;2023-01-24T09:29:37;5.10;74.50
2941;DHT22;1480;51.456;6.670;2023-01-24T09:32:04;5.10;73.80
2941;DHT22;1480;51.456;6.670;2023-01-24T09:34:31;5.20;73.90
2941;DHT22;1480;51.456;6.670;2023-01-24T09:37:00;5.30;73.70
2941;DHT22;1480;51.456;6.670;2023-01-24T09:39:27;5.20;73.20
2941;DHT22;1480;51.456;6.670;2023-01-24T09:42:00;5.20;73.20
2941;DHT22;1480;51.456;6.670;2023-01-24T09:44:38;5.30;72.40
2941;DHT22;1480;51.456;6.670;2023-01-24T09:47:16;5.10;72.50
2941;DHT22;1480;51.456;6.670;2023-01-24T09:49:47;5.20;73.00
2941;DHT22;1480;51.456;6.670;2023-01-24T09:52:29;5.00;73.10
2941;DHT22;1480;51.456;6.670;2023-01-24T09:55:02;5.10;74.00
2941;DHT22;1480;51.456;6.670;2023-01-24T09:57:46;5.40;73.60
2941;DHT22;1480;51.456;6.670;2023-01-24T10:00:18;5.40;73.30
2941;DHT22;1480;51.456;6.670;2023-01-24T10:02:46;5.30;72.40
2941;DHT22;1480;51.456;6.670;2023-01-24T10:05:14;5.20;72.70
2941;DHT22;1480;51.456;6.670;2023-01-24T10:08:07;5.20;72.50
2941;DHT22;1480;51.456;6.670;2023-01-24T10:10:52;5.50;72.70
2941;DHT22;1480;51.456;6.670;2023-01-24T10:13:47;5.60;71.80
2941;DHT22;1480;51.456;6.670;2023-01-24T10:16:42;5.60;71.40
2941;DHT22;1480;51.456;6.670;2023-01-24T10:19:23;5.50;71.80
2941;DHT22;1480;51.456;6.670;2023-01-24T10:22:03;5.50;71.20
2941;DHT22;1480;51.456;6.670;2023-01-24T10:24:38;5.50;71.30
2941;DHT22;1480;51.456;6.670;2023-01-24T10:27:16;5.40;71.10
2941;DHT22;1480;51.456;6.670;2023-01-24T10:29:54;5.70;70.90
2941;DHT22;1480;51.456;6.670;2023-01-24T10:32:30;5.50;70.10
2941;DHT22;1480;51.456;6.670;2023-01-24T10:35:01;5.40;71.10
2941;DHT22;1480;51.456;6.670;2023-01-24T10:37:35;5.50;70.90
2941;DHT22;1480;51.456;6.670;2023-01-24T10:40:11;5.30;70.70
2941;DHT22;1480;51.456;6.670;2023-01-24T10:42:39;5.60;71.20
2941;DHT22;1480;51.456;6.670;2023-01-24T10:45:24;5.60;70.70
2941;DHT22;1480;51.456;6.670;2023-01-24T10:47:57;5.70;70.30
2941;DHT22;1480;51.456;6.670;2023-01-24T10:50:33;5.50;70.40
2941;DHT22;1480;51.456;6.670;2023-01-24T10:53:11;5.50;70.50
2941;DHT22;1480;51.456;6.670;2023-01-24T10:55:40;5.60;70.90
2941;DHT22;1480;51.456;6.670;2023-01-24T10:58:20;5.60;70.70
2941;DHT22;1480;51.456;6.670;2023-01-24T11:00:55;5.50;69.50
2941;DHT22;1480;51.456;6.670;2023-01-24T11:03:27;5.70;69.90
2941;DHT22;1480;51.456;6.670;2023-01-24T11:05:55;5.40;69.90
2941;DHT22;1480;51.456;6.670;2023-01-24T11:08:24;5.50;70.10
2941;DHT22;1480;51.456;6.670;2023-01-24T11:10:54;5.40;70.20
2941;DHT22;1480;51.456;6.670;2023-01-24T11:13:35;5.60;69.60
2941;DHT22;1480;51.456;6.670;2023-01-24T11:16:08;5.60;69.70
2941;DHT22;1480;51.456;6.670;2023-01-24T11:18:47;5.60;70.70
2941;DHT22;1480;51.456;6.670;2023-01-24T11:21:16;5.70;69.70
2941;DHT22;1480;51.456;6.670;2023-01-24T11:23:43;5.60;70.00
2941;DHT22;1480;51.456;6.670;2023-01-24T11:26:23;5.90;70.10
2941;DHT22;1480;51.456;6.670;2023-01-24T11:28:59;5.70;69.20
2941;DHT22;1480;51.456;6.670;2023-01-24T11:31:29;5.80;68.50
2941;DHT22;1480;51.456;6.670;2023-01-24T11:37:11;5.80;69.30
2941;DHT22;1480;51.456;6.670;2023-01-24T11:39:46;5.50;69.20
2941;DHT22;1480;51.456;6.670;2023-01-24T11:42:28;5.70;68.50
2941;DHT22;1480;51.456;6.670;2023-01-24T11:45:23;5.60;69.20
2941;DHT22;1480;51.456;6.670;2023-01-24T11:48:00;5.80;69.00
2941;DHT22;1480;51.456;6.670;2023-01-24T11:50:37;5.60;69.90
2941;DHT22;1480;51.456;6.670;2023-01-24T11:56:07;5.70;68.60
2941;DHT22;1480;51.456;6.670;2023-01-24T11:58:46;5.70;69.00
2941;DHT22;1480;51.456;6.670;2023-01-24T12:01:24;5.80;69.40
2941;DHT22;1480;51.456;6.670;2023-01-24T12:04:17;5.70;69.40
2941;DHT22;1480;51.456;6.670;2023-01-24T12:06:50;5.80;69.50
2941;DHT22;1480;51.456;6.670;2023-01-24T12:09:20;6.00;69.20
2941;DHT22;1480;51.456;6.670;2023-01-24T12:12:05;6.00;68.20
2941;DHT22;1480;51.456;6.670;2023-01-24T12:15:11;6.00;66.50
2941;DHT22;1480;51.456;6.670;2023-01-24T12:17:57;5.80;67.50
2941;DHT22;1480;51.456;6.670;2023-01-24T12:20:37;5.70;69.10
2941;DHT22;1480;51.456;6.670;2023-01-24T12:23:21;5.50;69.00
2941;DHT22;1480;51.456;6.670;2023-01-24T12:25:53;5.90;68.60
2941;DHT22;1480;51.456;6.670;2023-01-24T12:28:28;5.70;69.90
2941;DHT22;1480;51.456;6.670;2023-01-24T12:31:00;5.80;69.60
2941;DHT22;1480;51.456;6.670;2023-01-24T12:33:32;5.50;69.80
2941;DHT22;1480;51.456;6.670;2023-01-24T12:36:03;5.70;69.50
2941;DHT22;1480;51.456;6.670;2023-01-24T12:38:36;5.50;69.60
2941;DHT22;1480;51.456;6.670;2023-01-24T12:41:12;5.60;68.90
2941;DHT22;1480;51.456;6.670;2023-01-24T12:43:51;5.60;69.20
2941;DHT22;1480;51.456;6.670;2023-01-24T12:46:26;5.50;69.20
2941;DHT22;1480;51.456;6.670;2023-01-24T12:49:01;5.80;69.00
2941;DHT22;1480;51.456;6.670;2023-01-24T12:51:36;5.70;67.90
2941;DHT22;1480;51.456;6.670;2023-01-24T12:54:11;5.90;67.70
2941;DHT22;1480;51.456;6.670;2023-01-24T12:56:47;6.00;67.90
2941;DHT22;1480;51.456;6.670;2023-01-24T12:59:21;5.90;67.30
2941;DHT22;1480;51.456;6.670;2023-01-24T13:04:49;6.10;68.70
2941;DHT22;1480;51.456;6.670;2023-01-24T13:07:30;5.80;67.70
2941;DHT22;1480;51.456;6.670;2023-01-24T13:10:05;5.90;68.30
2941;DHT22;1480;51.456;6.670;2023-01-24T13:12:35;6.00;67.50
2941;DHT22;1480;51.456;6.670;2023-01-24T13:15:05;6.00;67.10
2941;DHT22;1480;51.456;6.670;2023-01-24T13:17:56;5.90;67.20
2941;DHT22;1480;51.456;6.670;2023-01-24T13:20:47;5.90;67.60
2941;DHT22;1480;51.456;6.670;2023-01-24T13:23:27;5.60;67.80
2941;DHT22;1480;51.456;6.670;2023-01-24T13:29:03;5.90;69.50
2941;DHT22;1480;51.456;6.670;2023-01-24T13:31:43;5.80;68.20
2941;DHT22;1480;51.456;6.670;2023-01-24T13:34:16;5.60;69.00
2941;DHT22;1480;51.456;6.670;2023-01-24T13:36:48;5.80;68.30
2941;DHT22;1480;51.456;6.670;2023-01-24T13:39:30;5.70;68.50
2941;DHT22;1480;51.456;6.670;2023-01-24T13:42:03;5.40;68.70
2941;DHT22;1480;51.456;6.670;2023-01-24T13:44:32;5.40;69.40
2941;DHT22;1480;51.456;6.670;2023-01-24T13:47:22;5.20;70.10
2941;DHT22;1480;51.456;6.670;2023-01-24T13:50:13;5.30;70.40
2941;DHT22;1480;51.456;6.670;2023-01-24T13:52:43;5.40;69.80
2941;DHT22;1480;51.456;6.670;2023-01-24T13:58:30;5.50;69.90
2941;DHT22;1480;51.456;6.670;2023-01-24T14:01:00;5.50;69.70
2941;DHT22;1480;51.456;6.670;2023-01-24T14:03:37;5.50;70.30
2941;DHT22;1480;51.456;6.670;2023-01-24T14:06:11;5.70;69.90
2941;DHT22;1480;51.456;6.670;2023-01-24T14:09:12;5.70;68.40
2941;DHT22;1480;51.456;6.670;2023-01-24T14:11:54;5.50;68.80
2941;DHT22;1480;51.456;6.670;2023-01-24T14:15:02;5.50;69.60
2941;DHT22;1480;51.456;6.670;2023-01-24T14:17:49;5.50;69.70
2941;DHT22;1480;51.456;6.670;2023-01-24T14:20:23;5.40;70.00
2941;DHT22;1480;51.456;6.670;2023-01-24T14:22:58;5.40;70.20
2941;DHT22;1480;51.456;6.670;2023-01-24T14:25:34;5.40;69.50
2941;DHT22;1480;51.456;6.670;2023-01-24T14:28:10;5.10;70.30
2941;DHT22;1480;51.456;6.670;2023-01-24T14:30:43;5.10;70.30
2941;DHT22;1480;51.456;6.670;2023-01-24T14:33:23;5.20;70.60
2941;DHT22;1480;51.456;6.670;2023-01-24T14:35:59;5.00;70.60
2941;DHT22;1480;51.456;6.670;2023-01-24T14:38:28;5.10;72.00
2941;DHT22;1480;51.456;6.670;2023-01-24T14:40:56;5.10;71.20
2941;DHT22;1480;51.456;6.670;2023-01-24T14:43:31;5.10;72.00
2941;DHT22;1480;51.456;6.670;2023-01-24T14:46:08;5.30;70.90
2941;DHT22;1480;51.456;6.670;2023-01-24T14:48:35;5.30;71.20
2941;DHT22;1480;51.456;6.670;2023-01-24T14:51:05;5.40;70.80
2941;DHT22;1480;51.456;6.670;2023-01-24T14:53:34;5.20;70.20
2941;DHT22;1480;51.456;6.670;2023-01-24T14:56:08;5.40;69.70
2941;DHT22;1480;51.456;6.670;2023-01-24T14:58:35;5.30;70.20
2941;DHT22;1480;51.456;6.670;2023-01-24T15:01:03;5.30;70.10
2941;DHT22;1480;51.456;6.670;2023-01-24T15:03:32;5.20;70.90
2941;DHT22;1480;51.456;6.670;2023-01-24T15:06:01;5.30;71.30
2941;DHT22;1480;51.456;6.670;2023-01-24T15:08:29;5.30;70.80
2941;DHT22;1480;51.456;6.670;2023-01-24T15:11:01;5.40;71.80
2941;DHT22;1480;51.456;6.670;2023-01-24T15:13:32;5.60;70.80
2941;DHT22;1480;51.456;6.670;2023-01-24T15:15:59;5.40;71.00
2941;DHT22;1480;51.456;6.670;2023-01-24T15:18:48;5.20;71.70
2941;DHT22;1480;51.456;6.670;2023-01-24T15:21:19;5.00;71.90
2941;DHT22;1480;51.456;6.670;2023-01-24T15:23:50;5.20;73.20
2941;DHT22;1480;51.456;6.670;2023-01-24T15:26:33;5.30;71.90
2941;DHT22;1480;51.456;6.670;2023-01-24T15:32:29;5.10;71.50
2941;DHT22;1480;51.456;6.670;2023-01-24T15:35:19;4.90;71.90
2941;DHT22;1480;51.456;6.670;2023-01-24T15:37:46;4.90;72.00
2941;DHT22;1480;51.456;6.670;2023-01-24T15:40:21;4.90;72.10
2941;DHT22;1480;51.456;6.670;2023-01-24T15:42:49;4.60;72.40
2941;DHT22;1480;51.456;6.670;2023-01-24T15:45:38;4.70;72.80
2941;DHT22;1480;51.456;6.670;2023-01-24T15:48:12;4.60;73.00
2941;DHT22;1480;51.456;6.670;2023-01-24T15:50:49;4.60;72.70
2941;DHT22;1480;51.456;6.670;2023-01-24T15:53:37;4.60;72.60
2941;DHT22;1480;51.456;6.670;2023-01-24T15:56:06;4.70;73.10
2941;DHT22;1480;51.456;6.670;2023-01-24T15:58:37;4.80;73.00
2941;DHT22;1480;51.456;6.670;2023-01-24T16:01:04;4.50;73.40
2941;DHT22;1480;51.456;6.670;2023-01-24T16:03:31;4.60;73.20
2941;DHT22;1480;51.456;6.670;2023-01-24T16:05:58;4.70;73.00
2941;DHT22;1480;51.456;6.670;2023-01-24T16:08:25;4.30;72.80
2941;DHT22;1480;51.456;6.670;2023-01-24T16:10:52;4.60;73.00
2941;DHT22;1480;51.456;6.670;2023-01-24T16:13:27;4.70;73.70
2941;DHT22;1480;51.456;6.670;2023-01-24T16:15:59;4.50;73.00
2941;DHT22;1480;51.456;6.670;2023-01-24T16:18:26;4.50;73.40
2941;DHT22;1480;51.456;6.670;2023-01-24T16:20:53;4.60;73.20
2941;DHT22;1480;51.456;6.670;2023-01-24T16:23:20;4.60;73.40
2941;DHT22;1480;51.456;6.670;2023-01-24T16:25:50;4.70;73.50
2941;DHT22;1480;51.456;6.670;2023-01-24T16:28:20;4.50;73.40
2941;DHT22;1480;51.456;6.670;2023-01-24T16:30:48;4.50;73.50
2941;DHT22;1480;51.456;6.670;2023-01-24T16:33:18;4.80;75.00
2941;DHT22;1480;51.456;6.670;2023-01-24T16:35:45;4.70;73.50
2941;DHT22;1480;51.456;6.670;2023-01-24T16:38:14;4.60;73.30
2941;DHT22;1480;51.456;6.670;2023-01-24T16:40:41;4.40;73.00
2941;DHT22;1480;51.456;6.670;2023-01-24T16:43:15;4.60;73.80
2941;DHT22;1480;51.456;6.670;2023-01-24T16:45:44;4.60;73.90
2941;DHT22;1480;51.456;6.670;2023-01-24T16:48:12;4.60;73.70
2941;DHT22;1480;51.456;6.670;2023-01-24T16:50:41;4.60;73.10
2941;DHT22;1480;51.456;6.670;2023-01-24T16:53:08;4.60;73.40
2941;DHT22;1480;51.456;6.670;2023-01-24T16:55:35;4.50;74.00
2941;DHT22;1480;51.456;6.670;2023-01-24T16:58:05;4.70;73.10
2941;DHT22;1480;51.456;6.670;2023-01-24T17:00:32;4.40;73.90
2941;DHT22;1480;51.456;6.670;2023-01-24T17:02:59;4.70;73.30
2941;DHT22;1480;51.456;6.670;2023-01-24T17:05:27;4.60;73.70
2941;DHT22;1480;51.456;6.670;2023-01-24T17:07:55;4.50;73.40
2941;DHT22;1480;51.456;6.670;2023-01-24T17:10:22;4.70;74.10